Time;durP1;ratioP1;P1;durP2;ratioP2;P2;SDS_P1;SDS_P2;PMS_P1;PMS_P2;Temp;Humidity;BMP_temperature;BMP_pressure;BME280_temperature;BME280_humidity;BME280_pressure;Samples;Min_cycle;Max_cycle;Signal;HPM_P1;HPM_P2
2021/04/28 00:00:56;;;;;;;;;;;;;;;2.68;45.83;100779.20;1686092;83;20273;-74
2021/04/28 00:03:22;;;;;;;;;;;;;;;2.68;45.94;100780.48;1685585;84;20277;-74
2021/04/28 00:05:51;;;;;;;;;;;;;;;2.69;45.96;100774.96;1666423;83;20265;-74
2021/04/28 00:08:17;;;;;;;;;;;;;;;2.71;45.92;100769.47;1677074;83;20213;-74
2021/04/28 00:10:43;;;;;;;;;;;;;;;2.66;45.93;100765.14;1691932;84;20168;-74
2021/04/28 00:13:13;;;;;;;;;;;;;;;2.59;45.94;100767.16;1660950;85;20259;-74
2021/04/28 00:15:41;;;;;;;;;;;;;;;2.55;45.93;100764.11;1628991;87;20271;-74
2021/04/28 00:18:11;;;;;;;;;;;;;;;2.52;46.10;100763.19;1672424;84;20194;-74
2021/04/28 00:20:39;;;;;;;;;;;;;;;2.53;46.13;100762.36;1673437;84;20167;-74
2021/04/28 00:23:05;;;;;;;;;;;;;;;2.55;46.10;100761.56;1673412;84;20274;-74
2021/04/28 00:25:31;;;;;;;;;;;;;;;2.54;46.20;100755.15;1672513;84;20262;-74
2021/04/28 00:27:58;;;;;;;;;;;;;;;2.56;46.22;100756.04;1671649;84;20252;-74
2021/04/28 00:30:26;;;;;;;;;;;;;;;2.55;46.31;100757.73;1676931;83;20777;-74
2021/04/28 00:32:52;;;;;;;;;;;;;;;2.57;46.36;100762.86;1685851;84;20269;-74
2021/04/28 00:35:19;;;;;;;;;;;;;;;2.65;46.37;100763.84;1677488;83;20208;-74
2021/04/28 00:37:45;;;;;;;;;;;;;;;2.68;46.41;100760.06;1674117;83;20250;-74
2021/04/28 00:40:14;;;;;;;;;;;;;;;2.72;46.45;100759.70;1663324;85;20460;-74
2021/04/28 00:42:42;;;;;;;;;;;;;;;2.74;46.46;100760.59;1633014;87;20192;-74
2021/04/28 00:45:09;;;;;;;;;;;;;;;2.70;46.42;100763.50;1681487;83;20478;-73
2021/04/28 00:47:35;;;;;;;;;;;;;;;2.63;46.56;100759.98;1681252;84;20485;-74
2021/04/28 00:50:06;;;;;;;;;;;;;;;2.58;46.58;100759.48;1666838;84;20249;-74
2021/04/28 00:52:33;;;;;;;;;;;;;;;2.54;46.59;100759.84;1649661;85;20283;-73
2021/04/28 00:55:04;;;;;;;;;;;;;;;2.54;46.63;100761.11;1672352;84;20449;-74
2021/04/28 00:57:31;;;;;;;;;;;;;;;2.49;46.71;100755.48;1667011;84;20150;-73
2021/04/28 00:59:57;;;;;;;;;;;;;;;2.43;46.75;100756.22;1648051;85;20334;-74
2021/04/28 01:02:23;;;;;;;;;;;;;;;2.40;46.87;100749.78;1661192;84;20464;-74
2021/04/28 01:04:49;;;;;;;;;;;;;;;2.39;46.92;100754.85;1656510;85;20259;-73
2021/04/28 01:07:17;;;;;;;;;;;;;;;2.34;46.93;100752.21;1666022;84;20140;-73
2021/04/28 01:09:43;;;;;;;;;;;;;;;2.30;47.02;100747.47;1671601;84;20145;-73
2021/04/28 01:12:10;;;;;;;;;;;;;;;2.28;47.07;100749.13;1673388;84;20256;-73
2021/04/28 01:14:37;;;;;;;;;;;;;;;2.26;47.08;100749.51;1679143;83;20287;-74
2021/04/28 01:17:04;;;;;;;;;;;;;;;2.27;47.14;100747.81;1663172;84;20338;-74
2021/04/28 01:19:37;;;;;;;;;;;;;;;2.22;47.15;100737.94;1648605;85;20275;-74
2021/04/28 01:22:04;;;;;;;;;;;;;;;2.13;47.20;100745.41;1666841;84;20480;-73
2021/04/28 01:24:30;;;;;;;;;;;;;;;2.08;47.22;100740.66;1650468;84;20311;-74
2021/04/28 01:26:59;;;;;;;;;;;;;;;2.01;47.29;100735.84;1657432;84;20305;-74
2021/04/28 01:29:25;;;;;;;;;;;;;;;2.02;47.38;100738.84;1666699;84;20281;-74
2021/04/28 01:31:52;;;;;;;;;;;;;;;2.00;47.35;100737.95;1662527;84;20166;-74
2021/04/28 01:34:19;;;;;;;;;;;;;;;1.93;47.35;100733.55;1667382;84;20174;-73
2021/04/28 01:36:46;;;;;;;;;;;;;;;1.91;47.47;100727.14;1621030;87;20174;-74
2021/04/28 01:39:14;;;;;;;;;;;;;;;1.90;47.48;100729.25;1651516;84;20537;-74
2021/04/28 01:41:43;;;;;;;;;;;;;;;1.88;47.51;100726.22;1667194;84;20317;-73
2021/04/28 01:44:11;;;;;;;;;;;;;;;1.89;47.55;100719.02;1663030;84;20451;-73
2021/04/28 01:46:38;;;;;;;;;;;;;;;1.90;47.55;100717.77;1654288;84;20190;-73
2021/04/28 01:49:04;;;;;;;;;;;;;;;1.91;47.60;100719.91;1673447;84;20167;-73
2021/04/28 01:51:33;;;;;;;;;;;;;;;1.89;47.63;100715.19;1665866;84;20290;-74
2021/04/28 01:54:00;;;;;;;;;;;;;;;1.86;47.58;100718.53;1668125;85;20187;-74
2021/04/28 01:56:27;;;;;;;;;;;;;;;1.84;47.65;100720.61;1669874;85;20270;-73
2021/04/28 01:58:57;;;;;;;;;;;;;;;1.80;47.66;100714.59;1653082;84;20294;-73
2021/04/28 02:01:24;;;;;;;;;;;;;;;1.80;47.78;100713.31;1677528;85;20261;-74
2021/04/28 02:03:51;;;;;;;;;;;;;;;1.82;47.78;100711.66;1691724;83;20543;-74
2021/04/28 02:06:17;;;;;;;;;;;;;;;1.83;47.79;100715.06;1640959;86;20188;-73
2021/04/28 02:08:43;;;;;;;;;;;;;;;1.84;47.85;100711.27;1654393;85;20761;-73
2021/04/28 02:11:09;;;;;;;;;;;;;;;1.87;47.91;100707.92;1663220;83;20186;-73
2021/04/28 02:13:39;;;;;;;;;;;;;;;1.87;47.94;100708.78;1633074;86;20270;-74
2021/04/28 02:16:05;;;;;;;;;;;;;;;1.85;47.92;100704.06;1647527;87;20255;-73
2021/04/28 02:18:31;;;;;;;;;;;;;;;1.75;47.89;100695.78;1671726;83;20686;-73
2021/04/28 02:21:03;;;;;;;;;;;;;;;1.68;48.06;100693.94;1675753;84;20524;-73
2021/04/28 02:23:30;;;;;;;;;;;;;;;1.64;48.20;100694.28;1672765;83;20553;-73
2021/04/28 02:25:57;;;;;;;;;;;;;;;1.60;48.37;100693.77;1685518;84;20469;-73
2021/04/28 02:28:23;;;;;;;;;;;;;;;1.59;48.48;100689.91;1661295;85;20583;-73
2021/04/28 02:30:50;;;;;;;;;;;;;;;1.59;48.52;100683.12;1634517;86;20438;-73
2021/04/28 02:33:16;;;;;;;;;;;;;;;1.58;48.56;100684.37;1673673;84;20280;-73
2021/04/28 02:35:42;;;;;;;;;;;;;;;1.61;48.61;100690.39;1664879;84;20458;-73
2021/04/28 02:38:23;;;;;;;;;;;;;;;1.64;48.56;100684.50;1670557;85;20424;-74
2021/04/28 02:40:50;;;;;;;;;;;;;;;1.62;48.55;100683.61;1632542;86;20677;-74
2021/04/28 02:43:20;;;;;;;;;;;;;;;1.61;48.61;100685.30;1649636;85;20410;-74
2021/04/28 02:45:47;;;;;;;;;;;;;;;1.61;48.62;100678.06;1617610;86;20368;-74
2021/04/28 02:48:16;;;;;;;;;;;;;;;1.59;48.66;100672.94;1672849;83;20272;-73
2021/04/28 02:50:42;;;;;;;;;;;;;;;1.63;48.65;100676.41;1660558;84;20658;-73
2021/04/28 02:53:10;;;;;;;;;;;;;;;1.62;48.63;100674.27;1682059;83;20288;-74
2021/04/28 02:55:37;;;;;;;;;;;;;;;1.59;48.71;100674.20;1690849;83;20672;-74
2021/04/28 02:58:04;;;;;;;;;;;;;;;1.58;48.70;100673.77;1687388;83;20213;-73
2021/04/28 03:00:31;;;;;;;;;;;;;;;1.60;48.79;100672.52;1671002;85;20280;-73
2021/04/28 03:02:57;;;;;;;;;;;;;;;1.60;48.77;100668.28;1659423;84;20515;-74
2021/04/28 03:05:24;;;;;;;;;;;;;;;1.58;48.78;100667.80;1690454;83;20297;-74
2021/04/28 03:07:52;;;;;;;;;;;;;;;1.56;48.76;100666.95;1697755;83;20305;-74
2021/04/28 03:10:19;;;;;;;;;;;;;;;1.54;48.80;100668.59;1683512;83;20586;-73
2021/04/28 03:12:46;;;;;;;;;;;;;;;1.50;48.85;100660.44;1682532;83;20580;-74
2021/04/28 03:15:15;;;;;;;;;;;;;;;1.42;48.80;100661.96;1658995;85;20595;-74
2021/04/28 03:17:41;;;;;;;;;;;;;;;1.31;48.90;100662.59;1684539;83;20303;-73
2021/04/28 03:20:08;;;;;;;;;;;;;;;1.25;48.98;100662.86;1655232;85;20579;-74
2021/04/28 03:22:37;;;;;;;;;;;;;;;1.20;49.06;100661.90;1647830;86;20334;-74
2021/04/28 03:25:05;;;;;;;;;;;;;;;1.18;49.15;100667.37;1673606;83;20667;-73
2021/04/28 03:27:31;;;;;;;;;;;;;;;1.19;49.18;100665.27;1692056;83;20309;-73
2021/04/28 03:29:58;;;;;;;;;;;;;;;1.22;49.15;100664.93;1690789;83;20457;-73
2021/04/28 03:32:30;;;;;;;;;;;;;;;1.19;49.12;100670.36;1664634;85;20559;-73
2021/04/28 03:34:56;;;;;;;;;;;;;;;1.10;49.22;100665.92;1702069;83;20366;-73
2021/04/28 03:37:22;;;;;;;;;;;;;;;1.02;49.21;100662.38;1692086;83;20363;-74
2021/04/28 03:39:48;;;;;;;;;;;;;;;0.93;49.16;100661.74;1685183;83;20259;-73
2021/04/28 03:42:14;;;;;;;;;;;;;;;0.89;49.52;100661.22;1645075;85;20700;-74
2021/04/28 03:44:40;;;;;;;;;;;;;;;0.91;49.64;100666.34;1654157;85;20593;-74
2021/04/28 03:47:09;;;;;;;;;;;;;;;0.89;49.56;100667.99;1677549;83;20260;-74
2021/04/28 03:49:35;;;;;;;;;;;;;;;0.85;49.65;100658.56;1672038;84;20289;-73
2021/04/28 03:52:01;;;;;;;;;;;;;;;0.88;49.73;100665.00;1677235;84;20328;-74
2021/04/28 03:54:27;;;;;;;;;;;;;;;0.89;49.73;100661.63;1652845;85;20277;-73
2021/04/28 03:56:53;;;;;;;;;;;;;;;0.93;49.83;100665.56;1673818;84;20284;-73
2021/04/28 03:59:19;;;;;;;;;;;;;;;0.98;49.89;100665.67;1666344;84;20482;-74
2021/04/28 04:01:45;;;;;;;;;;;;;;;1.04;49.92;100663.23;1687774;84;20278;-74
2021/04/28 04:04:11;;;;;;;;;;;;;;;1.09;49.89;100661.66;1654192;85;20299;-73
2021/04/28 04:06:37;;;;;;;;;;;;;;;1.16;50.04;100664.79;1668480;84;20360;-74
2021/04/28 04:09:05;;;;;;;;;;;;;;;1.26;50.03;100662.90;1689284;84;20159;-74
2021/04/28 04:11:31;;;;;;;;;;;;;;;1.38;50.15;100662.72;1687629;84;20165;-78
2021/04/28 04:13:57;;;;;;;;;;;;;;;1.52;50.15;100659.65;1697357;84;20159;-78
2021/04/28 04:16:23;;;;;;;;;;;;;;;1.66;50.05;100659.49;1672203;84;20330;-78
2021/04/28 04:18:49;;;;;;;;;;;;;;;1.75;50.10;100657.55;1672091;84;20309;-78
2021/04/28 04:21:15;;;;;;;;;;;;;;;1.86;50.16;100657.35;1647134;85;20313;-78
2021/04/28 04:23:41;;;;;;;;;;;;;;;1.96;50.14;100662.22;1669807;84;20280;-78
2021/04/28 04:26:07;;;;;;;;;;;;;;;2.05;50.12;100658.98;1664685;84;20213;-78
2021/04/28 04:28:33;;;;;;;;;;;;;;;2.09;50.13;100667.97;1645391;85;20301;-74
2021/04/28 04:30:59;;;;;;;;;;;;;;;2.15;50.19;100660.44;1642122;85;20242;-73
2021/04/28 04:33:25;;;;;;;;;;;;;;;2.22;50.18;100663.55;1639291;85;20236;-73
2021/04/28 04:35:53;;;;;;;;;;;;;;;2.26;50.11;100660.22;1677375;84;20311;-73
2021/04/28 04:38:19;;;;;;;;;;;;;;;2.29;50.20;100662.83;1691995;84;20550;-72
2021/04/28 04:40:46;;;;;;;;;;;;;;;2.35;50.29;100661.22;1673072;84;20277;-73
2021/04/28 04:43:12;;;;;;;;;;;;;;;2.41;50.30;100666.02;1636526;85;20313;-73
2021/04/28 04:45:38;;;;;;;;;;;;;;;2.53;50.37;100664.09;1669931;84;20306;-72
2021/04/28 04:48:06;;;;;;;;;;;;;;;2.63;50.43;100663.39;1676196;84;20289;-72
2021/04/28 04:50:35;;;;;;;;;;;;;;;2.75;50.42;100661.05;1671144;84;37649;-72
2021/04/28 04:53:03;;;;;;;;;;;;;;;2.86;50.42;100659.94;1668324;84;20250;-73
2021/04/28 04:55:29;;;;;;;;;;;;;;;2.97;50.48;100665.66;1649907;84;20302;-73
2021/04/28 04:57:55;;;;;;;;;;;;;;;3.07;50.50;100652.61;1644109;85;20264;-73
2021/04/28 05:00:25;;;;;;;;;;;;;;;3.23;50.60;100658.78;1651400;85;20500;-74
2021/04/28 05:02:51;;;;;;;;;;;;;;;3.41;50.61;100655.20;1648803;85;20262;-73
2021/04/28 05:05:17;;;;;;;;;;;;;;;3.73;50.76;100663.69;1659671;85;20253;-73
2021/04/28 05:07:43;;;;;;;;;;;;;;;4.17;50.96;100672.72;1672524;85;20171;-73
2021/04/28 05:10:12;;;;;;;;;;;;;;;4.76;51.03;100662.59;1651759;85;20271;-72
2021/04/28 05:12:46;;;;;;;;;;;;;;;5.44;50.89;100658.34;1647645;85;20279;-73
2021/04/28 05:15:12;;;;;;;;;;;;;;;6.18;50.80;100657.38;1652909;84;20468;-73
2021/04/28 05:17:38;;;;;;;;;;;;;;;6.94;50.72;100655.27;1648880;85;20298;-73
2021/04/28 05:20:05;;;;;;;;;;;;;;;7.70;50.62;100656.80;1659878;85;20252;-73
2021/04/28 05:22:31;;;;;;;;;;;;;;;8.37;50.23;100657.31;1656301;85;20266;-73
2021/04/28 05:25:00;;;;;;;;;;;;;;;9.02;50.16;100655.93;1651038;85;20265;-73
2021/04/28 05:27:26;;;;;;;;;;;;;;;9.60;49.92;100646.28;1656596;85;20283;-73
2021/04/28 05:29:53;;;;;;;;;;;;;;;10.20;50.03;100655.44;1662229;85;20255;-73
2021/04/28 05:32:19;;;;;;;;;;;;;;;10.77;49.66;100649.81;1655990;85;20284;-73
2021/04/28 05:34:45;;;;;;;;;;;;;;;11.35;49.24;100656.98;1663724;85;20269;-74
2021/04/28 05:37:18;;;;;;;;;;;;;;;11.83;49.25;100656.48;1660094;85;20258;-73
2021/04/28 05:39:47;;;;;;;;;;;;;;;12.11;48.88;100654.14;1661305;85;20263;-73
2021/04/28 05:42:14;;;;;;;;;;;;;;;12.38;48.81;100657.87;1659132;85;20255;-73
2021/04/28 05:44:40;;;;;;;;;;;;;;;12.65;48.68;100652.02;1668400;85;20258;-74
2021/04/28 05:47:08;;;;;;;;;;;;;;;13.04;48.58;100647.56;1669627;84;20326;-73
2021/04/28 05:49:34;;;;;;;;;;;;;;;13.32;48.37;100651.63;1670557;85;20258;-74
2021/04/28 05:52:00;;;;;;;;;;;;;;;13.48;48.20;100647.72;1646390;85;20259;-74
2021/04/28 05:54:26;;;;;;;;;;;;;;;13.60;48.31;100651.70;1660091;85;20267;-74
2021/04/28 05:56:52;;;;;;;;;;;;;;;13.74;48.20;100650.02;1664635;85;20263;-74
2021/04/28 05:59:19;;;;;;;;;;;;;;;13.98;48.22;100653.22;1664842;85;20257;-74
2021/04/28 06:01:45;;;;;;;;;;;;;;;14.05;47.83;100649.95;1640116;85;20269;-74
2021/04/28 06:04:11;;;;;;;;;;;;;;;14.21;47.77;100652.50;1661185;85;20441;-74
2021/04/28 06:06:37;;;;;;;;;;;;;;;14.39;47.76;100653.24;1652262;85;20261;-74
2021/04/28 06:09:04;;;;;;;;;;;;;;;14.57;47.54;100649.22;1646204;85;20271;-74
2021/04/28 06:11:30;;;;;;;;;;;;;;;14.76;47.45;100645.58;1651232;85;20285;-74
2021/04/28 06:13:56;;;;;;;;;;;;;;;15.03;47.32;100645.97;1651122;85;20269;-74
2021/04/28 06:16:24;;;;;;;;;;;;;;;15.13;47.21;100646.47;1649884;85;20277;-74
2021/04/28 06:18:50;;;;;;;;;;;;;;;14.92;46.81;100640.72;1657768;85;20191;-74
2021/04/28 06:21:16;;;;;;;;;;;;;;;14.93;47.15;100639.36;1671629;85;20274;-74
2021/04/28 06:23:42;;;;;;;;;;;;;;;15.24;47.14;100645.66;1669937;85;20259;-74
2021/04/28 06:26:08;;;;;;;;;;;;;;;15.43;46.90;100640.66;1655029;85;20212;-74
2021/04/28 06:28:35;;;;;;;;;;;;;;;15.63;46.95;100642.09;1645552;85;20268;-74
2021/04/28 06:31:01;;;;;;;;;;;;;;;15.66;46.84;100647.20;1651012;85;20174;-74
2021/04/28 06:33:27;;;;;;;;;;;;;;;15.93;46.88;100642.73;1647492;85;20270;-74
2021/04/28 06:35:53;;;;;;;;;;;;;;;16.22;46.47;100644.20;1656631;85;20256;-74
2021/04/28 06:38:19;;;;;;;;;;;;;;;16.46;46.25;100640.63;1655034;85;20266;-74
2021/04/28 06:40:45;;;;;;;;;;;;;;;16.63;46.18;100636.50;1665551;85;20278;-74
2021/04/28 06:43:11;;;;;;;;;;;;;;;16.77;45.88;100635.03;1661625;85;20185;-73
2021/04/28 06:45:37;;;;;;;;;;;;;;;16.71;45.63;100633.97;1669492;85;20689;-74
2021/04/28 06:48:04;;;;;;;;;;;;;;;16.68;45.61;100629.33;1667928;84;20390;-73
2021/04/28 06:50:30;;;;;;;;;;;;;;;16.72;45.70;100629.14;1663771;85;20282;-73
2021/04/28 06:52:57;;;;;;;;;;;;;;;16.79;45.60;100631.05;1657668;85;20272;-74
2021/04/28 06:55:23;;;;;;;;;;;;;;;16.94;45.58;100628.25;1664114;85;20278;-75
2021/04/28 06:57:57;;;;;;;;;;;;;;;17.17;45.53;100626.80;1672979;85;20312;-74
2021/04/28 07:00:24;;;;;;;;;;;;;;;17.41;45.74;100630.11;1591614;87;20286;-74
2021/04/28 07:02:50;;;;;;;;;;;;;;;17.57;45.51;100625.91;1680883;84;20254;-74
2021/04/28 07:05:18;;;;;;;;;;;;;;;17.77;45.39;100619.78;1660868;85;20288;-74
2021/04/28 07:07:44;;;;;;;;;;;;;;;17.92;45.37;100624.31;1660616;85;20290;-75
2021/04/28 07:10:11;;;;;;;;;;;;;;;17.96;45.29;100623.25;1684498;84;20262;-75
2021/04/28 07:12:37;;;;;;;;;;;;;;;17.86;44.86;100624.14;1675903;84;20272;-75
2021/04/28 07:15:05;;;;;;;;;;;;;;;17.66;44.73;100618.14;1678433;84;20288;-75
2021/04/28 07:17:33;;;;;;;;;;;;;;;17.50;44.56;100613.56;1671505;84;20258;-74
2021/04/28 07:20:00;;;;;;;;;;;;;;;17.50;44.49;100621.87;1662507;83;20157;-74
2021/04/28 07:22:26;;;;;;;;;;;;;;;17.62;44.32;100620.02;1665098;84;20276;-74
2021/04/28 07:24:54;;;;;;;;;;;;;;;17.61;44.28;100621.39;1653629;85;20292;-74
2021/04/28 07:27:21;;;;;;;;;;;;;;;17.64;44.17;100612.95;1645372;86;20267;-74
2021/04/28 07:29:47;;;;;;;;;;;;;;;17.73;44.04;100612.53;1640797;85;20312;-75
2021/04/28 07:32:14;;;;;;;;;;;;;;;17.75;43.84;100609.39;1643008;85;20313;-74
2021/04/28 07:34:40;;;;;;;;;;;;;;;17.90;44.01;100609.15;1637616;85;20287;-74
2021/04/28 07:37:06;;;;;;;;;;;;;;;17.97;43.69;100605.79;1664911;84;20277;-74
2021/04/28 07:39:33;;;;;;;;;;;;;;;17.98;43.42;100607.03;1687835;84;20313;-74
2021/04/28 07:41:59;;;;;;;;;;;;;;;17.87;43.03;100605.37;1678083;84;20259;-74
2021/04/28 07:44:25;;;;;;;;;;;;;;;17.82;43.09;100603.42;1686359;84;20260;-74
2021/04/28 07:46:52;;;;;;;;;;;;;;;17.86;42.78;100598.44;1690956;84;20314;-74
2021/04/28 07:49:19;;;;;;;;;;;;;;;17.84;42.78;100597.66;1700243;84;20286;-74
2021/04/28 07:51:45;;;;;;;;;;;;;;;17.93;42.72;100600.31;1689633;84;20282;-74
2021/04/28 07:54:11;;;;;;;;;;;;;;;17.93;43.07;100595.92;1682958;84;20281;-75
2021/04/28 07:56:38;;;;;;;;;;;;;;;17.88;42.40;100596.59;1676128;84;20272;-75
2021/04/28 07:59:04;;;;;;;;;;;;;;;17.76;42.13;100590.16;1688331;84;20405;-74
2021/04/28 08:01:30;;;;;;;;;;;;;;;17.76;42.19;100594.09;1655388;85;20313;-73
2021/04/28 08:04:03;;;;;;;;;;;;;;;17.85;42.28;100597.59;1649390;85;20296;-74
2021/04/28 08:06:29;;;;;;;;;;;;;;;17.66;41.79;100596.77;1649103;85;20296;-75
2021/04/28 08:08:54;;;;;;;;;;;;;;;17.23;41.47;100591.70;1654627;85;20272;-74
2021/04/28 08:11:22;;;;;;;;;;;;;;;17.00;41.60;100591.42;1640002;85;20611;-75
2021/04/28 08:13:48;;;;;;;;;;;;;;;16.76;41.49;100592.00;1643291;85;20308;-74
2021/04/28 08:16:16;;;;;;;;;;;;;;;16.71;41.34;100584.81;1635323;85;20300;-75
2021/04/28 08:18:46;;;;;;;;;;;;;;;16.40;41.16;100577.39;1646919;85;20308;-74
2021/04/28 08:21:13;;;;;;;;;;;;;;;16.27;41.21;100579.64;1643976;85;20263;-74
2021/04/28 08:23:43;;;;;;;;;;;;;;;16.39;41.26;100578.30;1645157;85;20551;-74
2021/04/28 08:26:14;;;;;;;;;;;;;;;16.64;41.11;100579.42;1667013;85;20250;-74
2021/04/28 08:28:43;;;;;;;;;;;;;;;16.84;40.99;100568.56;1636008;85;20258;-75
2021/04/28 08:31:18;;;;;;;;;;;;;;;16.91;40.86;100574.84;1663017;85;20480;-74
2021/04/28 08:33:44;;;;;;;;;;;;;;;16.60;40.98;100577.42;1660537;85;20282;-74
2021/04/28 08:36:11;;;;;;;;;;;;;;;16.10;40.41;100573.81;1666956;85;20467;-74
2021/04/28 08:38:41;;;;;;;;;;;;;;;15.79;40.30;100575.45;1669391;85;20278;-74
2021/04/28 08:41:09;;;;;;;;;;;;;;;15.61;40.30;100570.92;1669508;85;20271;-74
2021/04/28 08:43:36;;;;;;;;;;;;;;;15.52;40.25;100569.51;1667859;85;20320;-74
2021/04/28 08:46:03;;;;;;;;;;;;;;;15.84;40.10;100574.82;1663203;85;20311;-74
2021/04/28 08:48:30;;;;;;;;;;;;;;;16.49;39.97;100573.95;1672118;83;20262;-74
2021/04/28 08:50:56;;;;;;;;;;;;;;;17.11;39.70;100563.92;1700923;84;20761;-74
2021/04/28 08:53:24;;;;;;;;;;;;;;;17.48;40.14;100568.80;1662907;85;20270;-74
2021/04/28 08:55:50;;;;;;;;;;;;;;;17.76;40.21;100563.16;1670460;85;20556;-74
2021/04/28 08:58:16;;;;;;;;;;;;;;;17.72;39.79;100562.91;1667980;85;20270;-74
2021/04/28 09:00:42;;;;;;;;;;;;;;;17.74;40.10;100554.08;1688778;84;20254;-74
2021/04/28 09:03:12;;;;;;;;;;;;;;;17.75;40.32;100563.63;1680651;84;20246;-74
2021/04/28 09:05:38;;;;;;;;;;;;;;;17.62;39.74;100562.95;1690860;84;20277;-74
2021/04/28 09:08:11;;;;;;;;;;;;;;;17.41;40.02;100549.92;1699516;84;20272;-74
2021/04/28 09:10:42;;;;;;;;;;;;;;;17.26;39.90;100551.92;1699044;84;20254;-74
2021/04/28 09:13:22;;;;;;;;;;;;;;;16.71;39.76;100550.88;1671009;85;20187;-74
2021/04/28 09:15:48;;;;;;;;;;;;;;;16.12;39.43;100536.75;1665807;85;20580;-75
2021/04/28 09:18:16;;;;;;;;;;;;;;;15.57;39.05;100540.70;1659682;84;20263;-75
2021/04/28 09:20:58;;;;;;;;;;;;;;;15.23;39.13;100551.02;1682433;84;20258;-75
2021/04/28 09:23:19;;;;;;;;;;;;;;;14.94;38.95;100543.88;1687892;83;20260;-75
2021/04/28 09:25:53;;;;;;;;;;;;;;;14.57;38.46;100539.92;1656165;85;20297;-75
2021/04/28 09:28:29;;;;;;;;;;;;;;;14.33;38.44;100531.63;1689448;83;20270;-75
2021/04/28 09:31:10;;;;;;;;;;;;;;;14.12;38.26;100531.86;1661945;85;20273;-74
2021/04/28 09:33:54;;;;;;;;;;;;;;;14.03;38.04;100523.08;1665225;85;20258;-74
2021/04/28 09:36:26;;;;;;;;;;;;;;;14.01;38.03;100520.98;1658979;85;20269;-75
2021/04/28 09:38:58;;;;;;;;;;;;;;;13.95;37.91;100524.63;1659208;85;20268;-75
2021/04/28 09:41:42;;;;;;;;;;;;;;;13.95;37.81;100514.67;1697176;84;20273;-75
2021/04/28 09:44:21;;;;;;;;;;;;;;;13.95;37.69;100515.52;1696981;84;20262;-75
2021/04/28 09:46:56;;;;;;;;;;;;;;;13.92;37.46;100516.91;1693590;84;20266;-74
2021/04/28 09:49:25;;;;;;;;;;;;;;;13.81;37.53;100514.65;1690782;82;20269;-74
2021/04/28 09:51:56;;;;;;;;;;;;;;;13.82;37.50;100512.90;1661427;85;20299;-74
2021/04/28 09:54:28;;;;;;;;;;;;;;;13.78;37.26;100503.50;1674295;85;20270;-75
2021/04/28 09:56:54;;;;;;;;;;;;;;;13.78;37.14;100499.59;1656245;85;20276;-74
2021/04/28 09:59:40;;;;;;;;;;;;;;;13.75;37.27;100494.05;1665049;85;20309;-75
2021/04/28 10:02:07;;;;;;;;;;;;;;;13.76;37.26;100487.95;1657723;85;20171;-74
2021/04/28 10:04:33;;;;;;;;;;;;;;;13.83;37.10;100476.91;1657696;85;20519;-74
2021/04/28 10:07:03;;;;;;;;;;;;;;;13.92;37.13;100477.92;1663654;85;20265;-74
2021/04/28 10:09:34;;;;;;;;;;;;;;;14.05;37.21;100469.25;1664075;85;20283;-74
2021/04/28 10:12:08;;;;;;;;;;;;;;;14.20;37.08;100481.30;1649942;85;20165;-73
2021/04/28 10:14:37;;;;;;;;;;;;;;;14.22;36.80;100475.61;1667662;85;20313;-73
2021/04/28 10:17:05;;;;;;;;;;;;;;;14.14;36.73;100469.80;1661170;85;20175;-74
2021/04/28 10:19:33;;;;;;;;;;;;;;;14.15;36.80;100471.95;1663841;85;20277;-74
2021/04/28 10:22:06;;;;;;;;;;;;;;;14.24;37.04;100458.65;1668553;85;20560;-74
2021/04/28 10:24:32;;;;;;;;;;;;;;;14.35;36.70;100466.94;1656967;85;20264;-74
2021/04/28 10:26:58;;;;;;;;;;;;;;;14.32;36.82;100460.99;1659011;85;20209;-74
2021/04/28 10:29:25;;;;;;;;;;;;;;;14.42;36.93;100456.77;1647898;85;20317;-73
2021/04/28 10:31:53;;;;;;;;;;;;;;;14.53;37.02;100459.84;1616051;87;20240;-73
2021/04/28 10:34:28;;;;;;;;;;;;;;;14.58;36.54;100453.15;1646262;85;20954;-73
2021/04/28 10:36:57;;;;;;;;;;;;;;;14.57;36.62;100457.95;1613343;87;20305;-74
2021/04/28 10:39:25;;;;;;;;;;;;;;;14.47;36.50;100457.45;1656859;85;20266;-74
2021/04/28 10:41:55;;;;;;;;;;;;;;;14.35;36.42;100450.03;1671046;84;20280;-73
2021/04/28 10:44:39;;;;;;;;;;;;;;;14.35;36.35;100445.28;1684398;84;20451;-74
2021/04/28 10:47:29;;;;;;;;;;;;;;;14.35;36.29;100444.83;1662587;85;20194;-74
2021/04/28 10:50:08;;;;;;;;;;;;;;;14.44;36.24;100444.55;1670045;84;20256;-74
2021/04/28 10:52:36;;;;;;;;;;;;;;;14.54;36.10;100441.18;1674748;84;20286;-74
2021/04/28 10:55:04;;;;;;;;;;;;;;;14.57;36.19;100439.29;1662647;84;20260;-74
2021/04/28 10:57:39;;;;;;;;;;;;;;;14.58;36.26;100443.59;1647238;85;20292;-75
2021/04/28 11:00:24;;;;;;;;;;;;;;;14.63;36.14;100434.32;1644296;85;20192;-76
2021/04/28 11:02:50;;;;;;;;;;;;;;;14.70;36.24;100432.35;1642059;85;20835;-75
2021/04/28 11:05:29;;;;;;;;;;;;;;;14.81;36.19;100434.97;1656405;85;20501;-75
2021/04/28 11:07:59;;;;;;;;;;;;;;;14.95;36.23;100434.92;1657240;85;20311;-75
2021/04/28 11:10:31;;;;;;;;;;;;;;;15.06;36.23;100425.80;1633450;85;20645;-75
2021/04/28 11:13:08;;;;;;;;;;;;;;;15.11;35.98;100419.94;1659422;85;20298;-74
2021/04/28 11:15:54;;;;;;;;;;;;;;;15.13;36.08;100420.73;1666851;85;20294;-74
2021/04/28 11:18:32;;;;;;;;;;;;;;;15.16;35.93;100416.70;1657836;85;20289;-73
2021/04/28 11:21:21;;;;;;;;;;;;;;;15.27;36.16;100412.84;1650563;85;20687;-73
2021/04/28 11:24:10;;;;;;;;;;;;;;;15.39;35.95;100416.28;1666271;85;20538;-73
2021/04/28 11:26:49;;;;;;;;;;;;;;;15.41;36.07;100402.28;1645626;87;20589;-73
2021/04/28 11:29:16;;;;;;;;;;;;;;;15.55;35.94;100396.53;1673647;85;20259;-74
2021/04/28 11:31:45;;;;;;;;;;;;;;;15.62;35.85;100396.69;1681103;85;20303;-72
2021/04/28 11:34:28;;;;;;;;;;;;;;;15.69;35.83;100400.74;1659922;85;20298;-74
2021/04/28 11:37:05;;;;;;;;;;;;;;;15.73;35.93;100398.86;1667226;85;20446;-74
2021/04/28 11:39:37;;;;;;;;;;;;;;;15.83;35.94;100391.06;1662590;85;20268;-74
2021/04/28 11:42:10;;;;;;;;;;;;;;;15.91;35.98;100394.20;1660837;85;20590;-74
2021/04/28 11:44:49;;;;;;;;;;;;;;;16.01;35.94;100390.75;1655650;85;20283;-74
2021/04/28 11:47:24;;;;;;;;;;;;;;;16.02;35.77;100385.47;1652769;85;20578;-74
2021/04/28 11:49:52;;;;;;;;;;;;;;;16.08;35.69;100386.98;1660147;84;20303;-74
2021/04/28 11:52:37;;;;;;;;;;;;;;;16.15;35.95;100381.41;1661218;85;20287;-74
2021/04/28 11:55:03;;;;;;;;;;;;;;;16.25;35.66;100381.02;1658559;85;20476;-74
2021/04/28 11:57:31;;;;;;;;;;;;;;;16.26;35.60;100379.64;1659324;84;20267;-74
2021/04/28 12:00:06;;;;;;;;;;;;;;;16.28;35.64;100370.45;1655249;85;20449;-74
2021/04/28 12:02:32;;;;;;;;;;;;;;;16.31;35.56;100374.23;1683736;83;20543;-74
2021/04/28 12:04:58;;;;;;;;;;;;;;;16.30;35.59;100360.33;1692268;83;20262;-74
2021/04/28 12:07:24;;;;;;;;;;;;;;;16.30;35.50;100369.92;1665005;84;20466;-74
2021/04/28 12:09:52;;;;;;;;;;;;;;;16.27;35.42;100371.36;1682268;83;20255;-74
2021/04/28 12:12:29;;;;;;;;;;;;;;;16.19;35.50;100371.69;1651889;85;20499;-74
2021/04/28 12:15:11;;;;;;;;;;;;;;;16.03;35.21;100365.45;1661972;85;20441;-74
2021/04/28 12:17:45;;;;;;;;;;;;;;;15.93;35.27;100358.48;1682746;83;21129;-73
2021/04/28 12:20:17;;;;;;;;;;;;;;;15.92;35.35;100356.78;1689363;83;20284;-74
2021/04/28 12:22:43;;;;;;;;;;;;;;;15.91;35.28;100354.23;1664957;84;20271;-74
2021/04/28 12:25:10;;;;;;;;;;;;;;;15.93;35.37;100349.80;1659709;84;20289;-74
2021/04/28 12:27:39;;;;;;;;;;;;;;;15.99;35.24;100353.00;1681459;83;20264;-73
2021/04/28 12:30:08;;;;;;;;;;;;;;;16.02;35.19;100345.50;1690769;83;20282;-74
2021/04/28 12:32:37;;;;;;;;;;;;;;;16.06;35.20;100343.16;1687793;83;20257;-74
2021/04/28 12:35:27;;;;;;;;;;;;;;;16.06;35.20;100343.16;1693129;83;20249;-74
2021/04/28 12:38:00;;;;;;;;;;;;;;;16.05;35.09;100340.16;1669127;84;20267;-74
2021/04/28 12:40:47;;;;;;;;;;;;;;;16.11;35.14;100335.98;1701911;83;20248;-74
2021/04/28 12:43:22;;;;;;;;;;;;;;;16.13;34.96;100329.75;1690448;83;20182;-74
2021/04/28 12:45:49;;;;;;;;;;;;;;;16.12;34.92;100329.82;1687163;83;20166;-74
2021/04/28 12:48:18;;;;;;;;;;;;;;;16.12;34.92;100326.76;1658496;84;20248;-74